Time;durP1;ratioP1;P1;durP2;ratioP2;P2;SDS_P1;SDS_P2;PMS_P1;PMS_P2;Temp;Humidity;BMP_temperature;BMP_pressure;BME280_temperature;BME280_humidity;BME280_pressure;Samples;Min_cycle;Max_cycle;Signal;HPM_P1;HPM_P2
2021/05/06 00:33:01;;;;;;;6.40;1.67;;;;;;;-144.13;100.00;64086.75;4995160;28;20042;-50
2021/05/06 00:35:29;;;;;;;10.48;2.05;;;;;;;-144.13;100.00;64086.75;4991868;28;20026;-49
2021/05/06 00:38:00;;;;;;;10.27;1.90;;;;;;;-144.13;100.00;64086.75;4994673;28;20034;-49
2021/05/06 00:41:06;;;;;;;9.57;2.22;;;;;;;-144.13;100.00;64086.75;4992846;28;20033;-49
2021/05/06 01:09:21;;;;;;;9.25;2.22;;;;;;;-144.13;100.00;64086.75;4996162;28;20767;-49
2021/05/06 01:11:57;;;;;;;14.45;1.95;;;;;;;-144.13;100.00;64086.75;4991361;28;20030;-49
2021/05/06 01:14:23;;;;;;;6.20;1.65;;;;;;;-144.13;100.00;64086.75;4999390;28;20554;-48
2021/05/06 01:16:48;;;;;;;6.30;1.95;;;;;;;-144.13;100.00;64086.75;4996607;28;20109;-49
2021/05/06 01:19:14;;;;;;;5.95;1.33;;;;;;;-144.13;100.00;64086.75;4994695;28;20022;-49
2021/05/06 01:21:39;;;;;;;5.53;1.35;;;;;;;-144.13;100.00;64086.75;4993386;28;20018;-48
2021/05/06 01:24:05;;;;;;;8.93;1.58;;;;;;;-144.13;100.00;64086.75;4991873;28;20113;-48
2021/05/06 01:29:03;;;;;;;9.80;1.67;;;;;;;-144.13;100.00;64086.75;4991571;28;20054;-49
2021/05/06 01:31:33;;;;;;;3.78;1.95;;;;;;;-144.13;100.00;64086.75;4990787;28;20044;-48
2021/05/06 01:34:20;;;;;;;15.40;2.15;;;;;;;-144.13;100.00;64086.75;4995932;28;20710;-48
2021/05/06 01:36:49;;;;;;;8.48;1.75;;;;;;;-144.13;100.00;64086.75;4996700;28;20045;-50
2021/05/06 01:39:42;;;;;;;8.85;1.52;;;;;;;-144.13;100.00;64086.75;4995157;28;20034;-49
2021/05/06 02:00:38;;;;;;;7.90;1.58;;;;;;;-144.13;100.00;64086.75;4998999;28;20442;-46
2021/05/06 02:03:03;;;;;;;7.95;1.55;;;;;;;-144.13;100.00;64086.75;4987457;28;20022;-47
2021/05/06 02:05:29;;;;;;;7.95;1.58;;;;;;;-144.13;100.00;64086.75;4997897;28;20029;-47
2021/05/06 02:07:55;;;;;;;11.02;1.60;;;;;;;-144.13;100.00;64086.75;4995511;28;20215;-47
2021/05/06 02:10:24;;;;;;;7.90;1.55;;;;;;;-144.13;100.00;64086.75;4998121;28;20026;-47
2021/05/06 02:12:51;;;;;;;9.13;1.90;;;;;;;-144.13;100.00;64086.75;4995744;28;20026;-47
2021/05/06 02:15:24;;;;;;;8.45;1.67;;;;;;;-144.13;100.00;64086.75;4993923;28;20030;-47
2021/05/06 02:17:50;;;;;;;11.38;1.63;;;;;;;-144.13;100.00;64086.75;4999025;28;20025;-46
2021/05/06 02:20:16;;;;;;;10.68;1.92;;;;;;;-144.13;100.00;64086.75;4992886;28;20112;-47
2021/05/06 02:22:47;;;;;;;4.28;1.20;;;;;;;-144.13;100.00;64086.75;4980432;28;20035;-46
2021/05/06 02:25:14;;;;;;;7.32;1.83;;;;;;;-144.13;100.00;64086.75;4994401;28;20195;-47
2021/05/06 02:27:40;;;;;;;6.80;1.27;;;;;;;-144.13;100.00;64086.75;4977364;28;20036;-47
2021/05/06 02:30:06;;;;;;;13.50;2.40;;;;;;;-144.13;100.00;64086.75;4995714;28;20034;-47
2021/05/06 02:32:32;;;;;;;8.27;1.50;;;;;;;-144.13;100.00;64086.75;4992156;28;20551;-46
2021/05/06 02:34:58;;;;;;;7.80;1.55;;;;;;;-144.13;100.00;64086.75;4981826;28;20072;-46
2021/05/06 02:37:25;;;;;;;7.97;1.63;;;;;;;-144.13;100.00;64086.75;4995724;28;20025;-47
2021/05/06 02:39:50;;;;;;;3.63;1.15;;;;;;;-144.13;100.00;64086.75;4996527;28;20033;-46
2021/05/06 02:42:16;;;;;;;5.07;1.30;;;;;;;-144.13;100.00;64086.75;4992742;28;20041;-47
2021/05/06 02:44:42;;;;;;;4.85;1.67;;;;;;;-144.13;100.00;64086.75;4993533;28;20022;-47
2021/05/06 02:47:08;;;;;;;10.10;2.55;;;;;;;-144.13;100.00;64086.75;4992804;28;20038;-47
2021/05/06 02:49:34;;;;;;;4.50;1.90;;;;;;;-144.13;100.00;64086.75;4994443;28;20132;-46
2021/05/06 02:52:14;;;;;;;10.15;1.73;;;;;;;-144.13;100.00;64086.75;4998062;28;20029;-47
2021/05/06 02:54:43;;;;;;;8.75;1.60;;;;;;;-144.13;100.00;64086.75;4994492;28;20026;-46
2021/05/06 03:05:03;;;;;;;6.32;1.48;;;;;;;-144.13;100.00;64086.75;4996700;28;20048;-48
2021/05/06 03:07:30;;;;;;;8.48;2.22;;;;;;;-144.13;100.00;64086.75;4996741;28;20025;-49
2021/05/06 03:10:15;;;;;;;9.35;1.70;;;;;;;-144.13;100.00;64086.75;5014678;28;20148;-48
2021/05/06 03:23:41;;;;;;;9.05;2.05;;;;;;;-144.13;100.00;64086.75;4955875;28;20145;-48
2021/05/06 03:26:07;;;;;;;11.10;3.83;;;;;;;-144.13;100.00;64086.75;5005637;28;20562;-48
2021/05/06 03:28:37;;;;;;;6.00;1.98;;;;;;;-144.13;100.00;64086.75;5015061;28;20522;-48
2021/05/06 03:41:44;;;;;;;9.25;1.92;;;;;;;-144.13;100.00;64086.75;5011178;28;20515;-48
2021/05/06 03:49:45;;;;;;;9.80;1.88;;;;;;;-144.13;100.00;64086.75;5012261;28;20056;-48
2021/05/06 04:18:56;;;;;;;9.50;1.73;;;;;;;-144.13;100.00;64086.75;5012767;28;20094;-48
2021/05/06 04:37:15;;;;;;;4.10;1.30;;;;;;;-144.13;100.00;64086.75;5014490;28;20040;-49
2021/05/06 04:39:49;;;;;;;5.47;1.38;;;;;;;-144.13;100.00;64086.75;5012163;28;20360;-49
2021/05/06 04:55:43;;;;;;;5.10;1.52;;;;;;;-144.13;100.00;64086.75;5011512;28;20116;-49
2021/05/06 05:03:37;;;;;;;7.82;1.40;;;;;;;-144.13;100.00;64086.75;5010323;28;20041;-49
2021/05/06 05:06:05;;;;;;;10.45;2.03;;;;;;;-144.13;100.00;64086.75;5007644;28;20029;-49
2021/05/06 05:08:37;;;;;;;7.40;1.55;;;;;;;-144.13;100.00;64086.75;5000327;28;20104;-51
2021/05/06 05:11:23;;;;;;;4.78;1.40;;;;;;;-144.13;100.00;64086.75;5002781;28;20202;-49
2021/05/06 05:24:45;;;;;;;9.50;1.58;;;;;;;-144.13;100.00;64086.75;4967357;28;20077;-50
2021/05/06 05:27:10;;;;;;;6.00;1.88;;;;;;;-144.13;100.00;64086.75;5015605;28;20032;-49
2021/05/06 05:29:36;;;;;;;5.13;1.45;;;;;;;-144.13;100.00;64086.75;5019360;28;20026;-49
2021/05/06 05:32:02;;;;;;;6.70;1.80;;;;;;;-144.13;100.00;64086.75;5017866;28;20457;-49
2021/05/06 05:34:33;;;;;;;7.97;1.42;;;;;;;-144.13;100.00;64086.75;5016877;28;20076;-48
2021/05/06 05:36:59;;;;;;;6.35;1.55;;;;;;;-144.13;100.00;64086.75;5017028;28;20368;-49
2021/05/06 05:39:39;;;;;;;8.13;1.67;;;;;;;-144.13;100.00;64086.75;5010924;28;20084;-49
2021/05/06 05:55:32;;;;;;;6.20;1.60;;;;;;;-144.13;100.00;64086.75;5013420;28;20061;-49
2021/05/06 05:57:58;;;;;;;6.72;1.40;;;;;;;-144.13;100.00;64086.75;5016182;28;20014;-49
2021/05/06 06:00:23;;;;;;;6.63;1.60;;;;;;;-144.13;100.00;64086.75;5015245;28;20033;-49
2021/05/06 06:02:49;;;;;;;6.30;1.42;;;;;;;-144.13;100.00;64086.75;5016230;28;20275;-49
2021/05/06 06:05:14;;;;;;;9.93;1.50;;;;;;;-144.13;100.00;64086.75;5012100;28;20396;-49
2021/05/06 06:07:40;;;;;;;10.95;1.48;;;;;;;-144.13;100.00;64086.75;5016878;28;20061;-49
2021/05/06 06:10:06;;;;;;;9.98;2.40;;;;;;;-144.13;100.00;64086.75;5017956;28;20388;-49
2021/05/06 06:12:32;;;;;;;5.75;1.50;;;;;;;-144.13;100.00;64086.75;5012845;28;20022;-49
2021/05/06 06:15:09;;;;;;;5.88;1.35;;;;;;;-144.13;100.00;64086.75;5014907;28;20040;-49
2021/05/06 06:17:43;;;;;;;10.77;1.92;;;;;;;-144.13;100.00;64086.75;5011843;28;20097;-49
2021/05/06 06:20:10;;;;;;;8.02;1.73;;;;;;;-144.13;100.00;64086.75;5021262;28;20082;-50
2021/05/06 06:22:35;;;;;;;4.93;1.45;;;;;;;-144.13;100.00;64086.75;5017284;28;20545;-51
2021/05/06 06:25:02;;;;;;;4.93;1.42;;;;;;;-144.13;100.00;64086.75;5014369;28;20034;-51
2021/05/06 06:27:29;;;;;;;5.13;1.20;;;;;;;-144.13;100.00;64086.75;5018604;28;20068;-51
2021/05/06 06:29:55;;;;;;;8.23;1.60;;;;;;;-144.13;100.00;64086.75;5018006;28;20387;-51
2021/05/06 06:32:21;;;;;;;6.68;1.15;;;;;;;-144.13;100.00;64086.75;5014000;28;20040;-52
2021/05/06 06:34:47;;;;;;;7.32;2.08;;;;;;;-144.13;100.00;64086.75;5015119;28;20399;-51
2021/05/06 06:37:13;;;;;;;6.05;1.20;;;;;;;-144.13;100.00;64086.75;5014298;28;20025;-51
2021/05/06 06:39:40;;;;;;;11.60;2.35;;;;;;;-144.13;100.00;64086.75;5018497;28;20476;-50
2021/05/06 06:42:10;;;;;;;9.60;2.25;;;;;;;-144.13;100.00;64086.75;5015005;28;20034;-50
2021/05/06 06:44:36;;;;;;;6.35;1.50;;;;;;;-144.13;100.00;64086.75;5014008;28;20035;-50
2021/05/06 06:47:07;;;;;;;10.23;1.45;;;;;;;-144.13;100.00;64086.75;5021410;28;20056;-50
2021/05/06 06:49:40;;;;;;;4.10;1.38;;;;;;;-144.13;100.00;64086.75;5011105;28;20028;-53
2021/05/06 06:52:08;;;;;;;7.60;1.55;;;;;;;-144.13;100.00;64086.75;5000592;28;20403;-49
2021/05/06 06:54:34;;;;;;;7.78;1.15;;;;;;;-144.13;100.00;64086.75;5012318;28;20026;-49
2021/05/06 06:57:00;;;;;;;4.28;1.20;;;;;;;-144.13;100.00;64086.75;5015401;28;20036;-52
2021/05/06 06:59:26;;;;;;;8.45;2.00;;;;;;;-144.13;100.00;64086.75;5011867;28;20045;-52
2021/05/06 07:01:52;;;;;;;4.05;1.48;;;;;;;-144.13;100.00;64086.75;5016626;28;20084;-51
2021/05/06 07:04:18;;;;;;;6.60;1.30;;;;;;;-144.13;100.00;64086.75;5016361;28;20552;-49
2021/05/06 07:06:43;;;;;;;12.70;1.70;;;;;;;-144.13;100.00;64086.75;5014082;28;20129;-51
2021/05/06 07:09:10;;;;;;;6.10;1.65;;;;;;;-144.13;100.00;64086.75;5015040;28;20404;-50
2021/05/06 07:11:39;;;;;;;6.45;1.27;;;;;;;-144.13;100.00;64086.75;5014171;28;20045;-52
2021/05/06 07:14:05;;;;;;;5.78;1.58;;;;;;;-144.13;100.00;64086.75;5017709;28;20025;-53
2021/05/06 07:16:32;;;;;;;8.32;1.80;;;;;;;-144.13;100.00;64086.75;5014716;28;20036;-51
2021/05/06 07:18:58;;;;;;;5.72;1.33;;;;;;;-144.13;100.00;64086.75;5009857;28;20075;-53
2021/05/06 07:21:27;;;;;;;9.60;1.48;;;;;;;-144.13;100.00;64086.75;5014493;28;20274;-52
2021/05/06 07:23:54;;;;;;;5.63;1.27;;;;;;;-144.13;100.00;64086.75;5014942;28;20026;-52
2021/05/06 07:26:26;;;;;;;7.45;1.40;;;;;;;-144.13;100.00;64086.75;5018010;28;20578;-52
2021/05/06 07:28:53;;;;;;;4.95;1.38;;;;;;;-144.13;100.00;64086.75;5001840;28;20013;-49
2021/05/06 07:31:20;;;;;;;5.95;1.40;;;;;;;-144.13;100.00;64086.75;5014593;28;20026;-50
2021/05/06 07:33:48;;;;;;;5.95;2.35;;;;;;;-144.13;100.00;64086.75;5012265;28;20391;-49
2021/05/06 07:36:14;;;;;;;3.92;1.13;;;;;;;-144.13;100.00;64086.75;5013616;28;20053;-50
2021/05/06 07:38:41;;;;;;;5.20;1.33;;;;;;;-144.13;100.00;64086.75;5013423;28;20364;-49
2021/05/06 07:41:07;;;;;;;3.63;1.15;;;;;;;-144.13;100.00;64086.75;5013475;28;20053;-50
2021/05/06 07:43:33;;;;;;;8.85;1.52;;;;;;;-144.13;100.00;64086.75;5010039;28;20040;-49
2021/05/06 07:45:59;;;;;;;4.85;1.60;;;;;;;-144.13;100.00;64086.75;5016449;28;20403;-49
2021/05/06 07:48:25;;;;;;;4.43;1.00;;;;;;;-144.13;100.00;64086.75;5011460;28;20117;-48
2021/05/06 07:50:51;;;;;;;4.07;1.10;;;;;;;-144.13;100.00;64086.75;5012229;28;20090;-50
2021/05/06 07:53:23;;;;;;;5.22;1.25;;;;;;;-144.13;100.00;64086.75;5012716;28;20545;-49
2021/05/06 07:55:49;;;;;;;4.22;1.27;;;;;;;-144.13;100.00;64086.75;5005073;28;20535;-49
2021/05/06 07:58:14;;;;;;;3.00;1.08;;;;;;;-144.13;100.00;64086.75;5010777;28;20029;-49
2021/05/06 08:00:40;;;;;;;4.25;1.10;;;;;;;-144.13;100.00;64086.75;5008354;28;20218;-51
2021/05/06 08:03:07;;;;;;;4.68;1.10;;;;;;;-144.13;100.00;64086.75;5011437;28;20040;-49
2021/05/06 08:05:34;;;;;;;2.67;0.80;;;;;;;-144.13;100.00;64086.75;5010078;28;20099;-50
2021/05/06 08:08:00;;;;;;;7.00;1.48;;;;;;;-144.13;100.00;64086.75;5012022;28;20025;-49
2021/05/06 08:10:26;;;;;;;7.97;1.42;;;;;;;-144.13;100.00;64086.75;5011940;28;20033;-47
2021/05/06 08:12:56;;;;;;;4.97;0.98;;;;;;;-144.13;100.00;64086.75;5015495;28;20456;-47
2021/05/06 08:15:22;;;;;;;2.90;1.10;;;;;;;-144.13;100.00;64086.75;5010956;28;20025;-47
2021/05/06 08:17:49;;;;;;;1.92;1.40;;;;;;;-144.13;100.00;64086.75;5007642;28;20026;-48
2021/05/06 08:20:15;;;;;;;3.20;1.10;;;;;;;-144.13;100.00;64086.75;5011768;28;20399;-47
2021/05/06 08:22:41;;;;;;;4.10;1.05;;;;;;;-144.13;100.00;64086.75;5006825;28;20029;-48
2021/05/06 08:25:09;;;;;;;5.30;1.27;;;;;;;-144.13;100.00;64086.75;5011087;28;20326;-49
2021/05/06 08:27:35;;;;;;;8.98;1.33;;;;;;;-144.13;100.00;64086.75;5007390;28;20294;-47
2021/05/06 08:30:01;;;;;;;3.30;1.15;;;;;;;-144.13;100.00;64086.75;5010964;28;20057;-47
2021/05/06 08:32:27;;;;;;;9.85;2.28;;;;;;;-144.13;100.00;64086.75;5007819;28;20759;-48
2021/05/06 08:34:53;;;;;;;3.55;1.05;;;;;;;-144.13;100.00;64086.75;5010103;28;20025;-47
2021/05/06 08:37:18;;;;;;;5.75;1.08;;;;;;;-144.13;100.00;64086.75;5011171;28;20040;-48
2021/05/06 08:39:44;;;;;;;10.98;1.60;;;;;;;-144.13;100.00;64086.75;5007683;28;20118;-47
2021/05/06 08:42:12;;;;;;;4.47;1.10;;;;;;;-144.13;100.00;64086.75;5007368;28;20408;-47
2021/05/06 08:44:38;;;;;;;3.70;1.20;;;;;;;-144.13;100.00;64086.75;5008631;28;20026;-47
2021/05/06 08:49:34;;;;;;;2.65;0.93;;;;;;;-144.13;100.00;64086.75;5012868;28;20055;-48
2021/05/06 08:52:03;;;;;;;4.13;1.40;;;;;;;-144.13;100.00;64086.75;5008223;28;20115;-50
2021/05/06 08:54:29;;;;;;;4.35;1.77;;;;;;;-144.13;100.00;64086.75;5009273;28;20029;-48
2021/05/06 08:56:56;;;;;;;5.22;1.45;;;;;;;-144.13;100.00;64086.75;5009132;28;20427;-49
2021/05/06 08:59:21;;;;;;;4.82;1.20;;;;;;;-144.13;100.00;64086.75;5010036;28;20088;-48
2021/05/06 09:01:48;;;;;;;1.40;1.20;;;;;;;-144.13;100.00;64086.75;5011084;28;20061;-48
2021/05/06 09:04:13;;;;;;;6.53;1.38;;;;;;;-144.13;100.00;64086.75;5013680;28;20158;-48
2021/05/06 09:07:12;;;;;;;8.75;1.10;;;;;;;-144.13;100.00;64086.75;5013852;28;20187;-50
2021/05/06 09:09:43;;;;;;;6.40;1.35;;;;;;;-144.13;100.00;64086.75;4983986;28;20503;-48
2021/05/06 09:12:09;;;;;;;4.43;1.17;;;;;;;-144.13;100.00;64086.75;4999238;28;20034;-49
2021/05/06 09:14:49;;;;;;;8.35;1.83;;;;;;;-144.13;100.00;64086.75;5009412;28;20032;-48
2021/05/06 09:17:28;;;;;;;8.10;1.50;;;;;;;-144.13;100.00;64086.75;5012363;28;20029;-48
2021/05/06 09:20:07;;;;;;;4.60;1.40;;;;;;;-144.13;100.00;64086.75;5010494;28;20060;-50
2021/05/06 09:22:44;;;;;;;4.57;1.33;;;;;;;-144.13;100.00;64086.75;5011621;28;20037;-50
2021/05/06 09:25:33;;;;;;;4.68;1.17;;;;;;;-144.13;100.00;64086.75;5008871;28;20495;-48
2021/05/06 09:28:16;;;;;;;7.53;1.33;;;;;;;-144.13;100.00;64086.75;5007529;28;20484;-49
2021/05/06 09:30:54;;;;;;;6.80;1.52;;;;;;;-144.13;100.00;64086.75;4998807;28;20032;-49
2021/05/06 09:33:35;;;;;;;9.32;2.05;;;;;;;-144.13;100.00;64086.75;5008923;28;20039;-48
2021/05/06 09:36:09;;;;;;;7.85;1.50;;;;;;;-144.13;100.00;64086.75;5009032;28;20134;-50
2021/05/06 09:38:42;;;;;;;6.60;1.15;;;;;;;-144.13;100.00;64086.75;5007589;28;20045;-49
2021/05/06 09:41:08;;;;;;;8.25;1.63;;;;;;;-144.13;100.00;64086.75;5009419;28;20047;-49
2021/05/06 09:43:42;;;;;;;5.70;1.20;;;;;;;-144.13;100.00;64086.75;5009602;28;20037;-48
2021/05/06 09:46:31;;;;;;;4.38;1.48;;;;;;;-144.13;100.00;64086.75;5007768;28;20491;-48
2021/05/06 09:49:11;;;;;;;4.75;1.33;;;;;;;-144.13;100.00;64086.75;5008796;28;20037;-48
2021/05/06 09:51:42;;;;;;;2.05;0.90;;;;;;;-144.13;100.00;64086.75;5009227;28;20021;-47
2021/05/06 09:54:15;;;;;;;6.47;1.35;;;;;;;-144.13;100.00;64086.75;5008864;28;20432;-48
2021/05/06 09:56:42;;;;;;;7.50;1.83;;;;;;;-144.13;100.00;64086.75;5009967;28;20032;-48
2021/05/06 09:59:08;;;;;;;5.97;1.35;;;;;;;-144.13;100.00;64086.75;5012093;28;20021;-48
2021/05/06 10:01:40;;;;;;;5.22;1.33;;;;;;;-144.13;100.00;64086.75;5017240;28;20072;-48
2021/05/06 10:04:18;;;;;;;8.70;1.80;;;;;;;-144.13;100.00;64086.75;5013947;28;20061;-50
2021/05/06 10:07:03;;;;;;;4.95;1.33;;;;;;;-144.13;100.00;64086.75;5014147;28;20688;-50
2021/05/06 10:09:30;;;;;;;12.65;1.80;;;;;;;-144.13;100.00;64086.75;5006653;28;20392;-50
2021/05/06 10:11:57;;;;;;;2.70;1.45;;;;;;;-144.13;100.00;64086.75;5011860;28;20034;-50
2021/05/06 10:14:23;;;;;;;7.47;2.05;;;;;;;-144.13;100.00;64086.75;5016912;28;20564;-49
2021/05/06 10:16:48;;;;;;;8.63;1.75;;;;;;;-144.13;100.00;64086.75;5012616;28;20049;-50
2021/05/06 10:19:16;;;;;;;5.10;1.48;;;;;;;-144.13;100.00;64086.75;4999943;28;20022;-51
2021/05/06 10:21:43;;;;;;;4.90;2.03;;;;;;;-144.13;100.00;64086.75;5014012;28;20511;-50
2021/05/06 10:24:09;;;;;;;3.88;1.60;;;;;;;-144.13;100.00;64086.75;5013936;28;20025;-48
2021/05/06 10:26:37;;;;;;;3.38;1.63;;;;;;;-144.13;100.00;64086.75;5015574;28;20029;-48
2021/05/06 10:29:04;;;;;;;9.20;2.38;;;;;;;-144.13;100.00;64086.75;5013367;28;20018;-48
2021/05/06 10:31:29;;;;;;;4.07;1.77;;;;;;;-144.13;100.00;64086.75;5012474;28;20025;-48
2021/05/06 10:33:55;;;;;;;9.82;1.77;;;;;;;-144.13;100.00;64086.75;5013617;28;20480;-49
2021/05/06 10:36:23;;;;;;;6.70;1.92;;;;;;;-144.13;100.00;64086.75;5014861;28;20081;-50
2021/05/06 10:38:49;;;;;;;4.93;1.63;;;;;;;-144.13;100.00;64086.75;5012041;28;20537;-50
2021/05/06 10:41:40;;;;;;;8.55;2.13;;;;;;;-144.13;100.00;64086.75;5014960;28;20117;-51
2021/05/06 10:44:11;;;;;;;4.75;1.67;;;;;;;-144.13;100.00;64086.75;5011407;28;20242;-48
2021/05/06 10:47:01;;;;;;;6.10;2.03;;;;;;;-144.13;100.00;64086.75;5013579;28;20542;-48
2021/05/06 10:49:38;;;;;;;5.18;1.73;;;;;;;-144.13;100.00;64086.75;5015413;28;20377;-48
2021/05/06 10:52:06;;;;;;;5.35;2.00;;;;;;;-144.13;100.00;64086.75;5013646;28;20055;-49
2021/05/06 10:54:38;;;;;;;4.25;2.22;;;;;;;-144.13;100.00;64086.75;5018198;28;20116;-48
2021/05/06 10:57:14;;;;;;;3.42;2.25;;;;;;;-144.13;100.00;64086.75;5016099;28;20309;-48
2021/05/06 10:59:47;;;;;;;5.45;1.73;;;;;;;-144.13;100.00;64086.75;5013236;28;20111;-50
2021/05/06 11:02:48;;;;;;;8.15;2.17;;;;;;;-144.13;100.00;64086.75;5015147;28;20392;-48
2021/05/06 11:05:26;;;;;;;3.78;1.60;;;;;;;-144.13;100.00;64086.75;5016229;28;20029;-48
2021/05/06 11:08:04;;;;;;;3.90;2.17;;;;;;;-144.13;100.00;64086.75;5012184;28;20130;-48
2021/05/06 11:10:52;;;;;;;6.68;1.73;;;;;;;12.04;nan;100601.06;5015012;28;20502;-49
2021/05/06 11:13:23;;;;;;;7.00;2.38;;;;;;;12.29;nan;100601.16;5018418;28;20034;-48
2021/05/06 11:15:50;;;;;;;4.32;2.35;;;;;;;12.02;nan;100605.84;5015764;28;20025;-48
2021/05/06 11:18:44;;;;;;;5.15;1.88;;;;;;;11.58;nan;100608.78;5014908;28;20419;-49
2021/05/06 11:21:30;;;;;;;4.20;1.75;;;;;;;11.45;nan;100601.97;5015301;28;20033;-48
2021/05/06 11:24:28;;;;;;;4.78;1.90;;;;;;;11.41;nan;100605.44;5014650;28;20408;-49
2021/05/06 11:26:59;;;;;;;5.10;2.15;;;;;;;11.24;nan;100602.91;4983723;28;20047;-48
2021/05/06 11:29:29;;;;;;;5.80;2.20;;;;;;;10.97;nan;100597.56;5016518;28;20461;-48
2021/05/06 11:31:55;;;;;;;6.07;2.50;;;;;;;11.37;nan;100596.31;5013743;28;20021;-49
2021/05/06 11:34:38;;;;;;;5.40;2.35;;;;;;;11.47;nan;100599.84;5015055;28;20045;-48
2021/05/06 11:37:33;;;;;;;4.78;2.13;;;;;;;11.77;nan;100601.94;5003526;28;20025;-48
2021/05/06 11:39:59;;;;;;;;;;;;;;;11.64;nan;100594.34;5005982;28;20411;-48
2021/05/06 11:42:27;;;;;;;4.03;1.88;;;;;;;11.46;nan;100605.47;5007378;28;19914;-48
2021/05/06 11:45:20;;;;;;;8.15;2.10;;;;;;;10.87;nan;100597.47;5008568;28;20480;-48
2021/05/06 11:47:46;;;;;;;9.43;1.90;;;;;;;10.98;nan;100584.97;5013975;28;20443;-48
2021/05/06 11:50:23;;;;;;;4.35;2.20;;;;;;;11.40;nan;100598.47;5014400;28;20026;-48
2021/05/06 11:52:49;;;;;;;6.30;2.47;;;;;;;11.44;nan;100591.50;5011116;28;20492;-48
2021/05/06 11:55:30;;;;;;;2.92;1.80;;;;;;;11.07;nan;100588.81;5010275;28;20060;-48
2021/05/06 11:57:56;;;;;;;5.00;2.40;;;;;;;11.15;nan;100593.72;5009717;28;20036;-48
2021/05/06 12:00:29;;;;;;;4.85;2.08;;;;;;;11.63;nan;100592.72;5013894;28;20116;-48
2021/05/06 12:03:01;;;;;;;4.95;2.25;;;;;;;11.90;nan;100586.47;5018755;28;20029;-48
2021/05/06 12:05:48;;;;;;;3.50;2.00;;;;;;;12.30;nan;100588.53;5012635;28;20025;-48
2021/05/06 12:08:15;;;;;;;5.13;2.35;;;;;;;13.09;nan;100580.09;5015204;28;20037;-50
2021/05/06 12:10:41;;;;;;;2.95;1.95;;;;;;;12.98;nan;100586.56;5011975;28;20117;-51
2021/05/06 12:13:06;;;;;;;3.33;2.00;;;;;;;12.54;nan;100578.94;5012505;28;20033;-48
2021/05/06 12:15:32;;;;;;;4.63;2.50;;;;;;;12.16;nan;100590.88;5014316;28;20052;-50
2021/05/06 12:18:33;;;;;;;4.32;1.95;;;;;;;12.85;nan;100581.69;5011294;28;20026;-52
2021/05/06 12:21:00;;;;;;;3.25;2.65;;;;;;;12.89;nan;100582.75;4947193;28;20050;-51
2021/05/06 12:23:26;;;;;;;4.07;2.30;;;;;;;12.60;nan;100574.41;4999163;28;20038;-48
2021/05/06 12:25:52;;;;;;;6.00;2.50;;;;;;;13.98;nan;100592.13;5015212;28;20464;-48
2021/05/06 12:28:18;;;;;;;8.23;2.42;;;;;;;14.82;nan;100583.13;5013186;28;20064;-49
2021/05/06 12:30:44;;;;;;;5.63;2.75;;;;;;;14.31;nan;100581.75;5012899;28;20040;-48
2021/05/06 12:33:09;;;;;;;4.43;2.45;;;;;;;13.81;nan;100573.56;5017063;28;20040;-49
2021/05/06 12:35:52;;;;;;;4.82;2.33;;;;;;;13.46;nan;100581.72;5011377;28;20021;-49
2021/05/06 12:38:17;;;;;;;3.42;2.60;;;;;;;12.28;nan;100588.81;5015509;28;20496;-48
2021/05/06 12:40:44;;;;;;;3.70;2.20;;;;;;;11.74;nan;100585.56;5011029;28;20064;-48
2021/05/06 12:43:29;;;;;;;3.45;2.47;;;;;;;14.58;nan;100576.00;5016096;28;20022;-49
2021/05/06 12:46:04;;;;;;;;;;;;;;;15.00;nan;100580.84;5012886;28;20035;-48
2021/05/06 12:48:39;;;;;;;5.65;2.55;;;;;;;13.70;nan;100571.19;5012566;28;19920;-48
2021/05/06 12:51:06;;;;;;;3.67;2.38;;;;;;;12.39;nan;100570.84;5013667;28;20037;-49
2021/05/06 12:53:32;;;;;;;3.17;2.25;;;;;;;14.00;nan;100554.94;5014816;28;20032;-48
2021/05/06 12:55:58;;;;;;;2.90;2.38;;;;;;;14.73;nan;100560.53;5012030;28;20085;-49
2021/05/06 12:58:32;;;;;;;2.92;2.17;;;;;;;16.09;nan;100561.44;5008649;28;20076;-49
2021/05/06 13:00:58;;;;;;;3.85;2.53;;;;;;;16.73;nan;100566.28;5010499;28;20038;-50
2021/05/06 13:03:34;;;;;;;3.72;2.33;;;;;;;19.23;nan;100564.91;5008533;28;20506;-49
2021/05/06 13:06:04;;;;;;;3.97;2.20;;;;;;;17.22;nan;100554.94;5007922;28;20030;-48
2021/05/06 13:08:38;;;;;;;4.47;2.10;;;;;;;16.17;nan;100555.41;5012540;28;20036;-49
2021/05/06 13:11:15;;;;;;;2.77;2.20;;;;;;;16.04;nan;100551.50;5009604;28;20025;-48
2021/05/06 13:13:44;;;;;;;3.90;2.30;;;;;;;16.11;nan;100553.84;5011906;28;20034;-51
2021/05/06 13:16:12;;;;;;;3.72;2.60;;;;;;;15.27;nan;100546.09;5008512;28;20041;-52
2021/05/06 13:18:38;;;;;;;7.55;2.67;;;;;;;14.51;nan;100538.53;5010637;28;20033;-48
2021/05/06 13:21:06;;;;;;;8.48;3.13;;;;;;;13.75;nan;100555.03;5008321;28;20050;-49
2021/05/06 13:23:35;;;;;;;3.38;2.70;;;;;;;15.37;nan;100543.28;5010141;28;20026;-49
2021/05/06 13:26:05;;;;;;;5.20;2.38;;;;;;;17.32;nan;100547.75;5011475;28;20030;-48
2021/05/06 13:28:31;;;;;;;4.35;2.25;;;;;;;17.92;nan;100547.72;5008730;28;20030;-49
2021/05/06 13:31:17;;;;;;;2.72;2.50;;;;;;;19.78;nan;100540.91;5011529;28;20368;-49
2021/05/06 13:33:47;;;;;;;3.10;2.55;;;;;;;18.23;nan;100527.00;5011903;28;20026;-49
2021/05/06 13:36:15;;;;;;;5.30;2.38;;;;;;;17.53;nan;100543.56;5011280;28;20029;-51
2021/05/06 13:38:52;;;;;;;2.55;1.98;;;;;;;17.34;nan;100545.53;5011727;28;20119;-50
2021/05/06 13:41:20;;;;;;;3.67;2.20;;;;;;;18.53;nan;100541.03;5015232;28;20029;-49
2021/05/06 13:43:46;;;;;;;3.25;2.38;;;;;;;16.33;nan;100544.06;5012269;28;20396;-51
2021/05/06 13:46:13;;;;;;;4.05;2.35;;;;;;;16.15;nan;100546.75;5004726;28;20374;-51
2021/05/06 13:48:38;;;;;;;5.00;2.50;;;;;;;14.74;nan;100543.28;5011359;28;20487;-48
2021/05/06 13:51:09;;;;;;;3.72;2.72;;;;;;;16.88;nan;100549.03;5014235;28;20029;-49
2021/05/06 13:53:39;;;;;;;3.25;2.20;;;;;;;18.92;nan;100538.47;5011954;28;20021;-49
2021/05/06 13:56:05;;;;;;;4.28;2.50;;;;;;;19.15;nan;100527.59;5012843;28;20432;-48
2021/05/06 13:58:31;;;;;;;5.07;2.78;;;;;;;21.01;nan;100525.19;5020049;28;20422;-49
2021/05/06 14:00:57;;;;;;;4.25;2.30;;;;;;;22.69;nan;100527.28;5012078;28;20030;-50
2021/05/06 14:03:23;;;;;;;2.20;1.63;;;;;;;23.18;nan;100525.56;5013091;28;20267;-49
2021/05/06 14:05:49;;;;;;;4.00;1.88;;;;;;;22.74;nan;100527.06;5012291;28;20112;-52
2021/05/06 14:08:15;;;;;;;3.78;2.15;;;;;;;20.14;nan;100529.00;5015592;28;20033;-49
2021/05/06 14:10:42;;;;;;;3.72;2.40;;;;;;;19.28;nan;100532.16;5014319;28;20435;-50
2021/05/06 14:13:08;;;;;;;2.95;2.65;;;;;;;21.85;nan;100531.03;5010861;28;20037;-49
2021/05/06 14:15:34;;;;;;;5.55;2.63;;;;;;;23.10;nan;100526.41;5017419;28;20030;-49
2021/05/06 14:17:59;;;;;;;2.42;2.22;;;;;;;22.92;nan;100525.00;5015209;28;20033;-50
2021/05/06 14:20:25;;;;;;;5.03;2.35;;;;;;;21.85;nan;100526.38;5013693;28;20030;-49
2021/05/06 14:22:51;;;;;;;2.50;2.00;;;;;;;20.31;nan;100511.91;4995086;28;20515;-49
2021/05/06 14:25:17;;;;;;;3.33;1.88;;;;;;;18.49;nan;100512.88;5017885;28;20387;-49
2021/05/06 14:27:42;;;;;;;5.75;2.28;;;;;;;17.08;nan;100497.25;5010653;28;20067;-49
2021/05/06 14:30:09;;;;;;;3.72;2.35;;;;;;;18.60;nan;100500.69;5013568;28;20719;-52
2021/05/06 14:32:34;;;;;;;2.75;2.00;;;;;;;20.47;nan;100515.78;5015205;28;20121;-51
2021/05/06 14:34:59;;;;;;;3.28;1.58;;;;;;;19.48;nan;100499.00;5010893;28;20569;-49
2021/05/06 14:37:25;;;;;;;4.93;2.22;;;;;;;19.55;nan;100510.25;5013226;28;20033;-50
2021/05/06 14:39:51;;;;;;;4.50;2.05;;;;;;;19.72;nan;100501.38;5012703;28;20254;-49
2021/05/06 14:42:17;;;;;;;2.72;2.00;;;;;;;17.83;nan;100500.75;5015672;28;20056;-49
2021/05/06 14:44:43;;;;;;;2.83;2.13;;;;;;;17.66;nan;100510.28;5013747;28;20304;-49
2021/05/06 14:47:09;;;;;;;4.07;2.40;;;;;;;17.66;nan;100512.97;5011385;28;20040;-51
2021/05/06 14:49:34;;;;;;;5.85;3.00;;;;;;;17.65;nan;100516.78;5015069;28;20026;-50
2021/05/06 14:52:00;;;;;;;2.60;2.20;;;;;;;18.92;nan;100499.69;5015561;28;20025;-52
2021/05/06 14:54:25;;;;;;;4.20;2.05;;;;;;;17.30;nan;100496.59;5000711;28;20128;-51